Time;durP1;ratioP1;P1;durP2;ratioP2;P2;SDS_P1;SDS_P2;PMS_P1;PMS_P2;Temp;Humidity;BMP_temperature;BMP_pressure;BME280_temperature;BME280_humidity;BME280_pressure;Samples;Min_cycle;Max_cycle;Signal;HPM_P1;HPM_P2
2024/02/12 00:00:11;;;;;;;5.67;3.90;;;;;;;;;;5026597;28;20240;-56
2024/02/12 00:02:41;;;;;;;3.97;3.67;;;;;;;;;;5026508;28;20172;-56
2024/02/12 00:05:10;;;;;;;5.27;4.30;;;;;;;;;;5026301;28;20189;-56
2024/02/12 00:07:36;;;;;;;4.17;3.63;;;;;;;;;;5026008;28;20605;-56
2024/02/12 00:10:10;;;;;;;7.80;4.67;;;;;;;;;;5023192;28;20237;-56
2024/02/12 00:12:36;;;;;;;5.83;4.33;;;;;;;;;;5027559;28;20606;-56
2024/02/12 00:15:03;;;;;;;5.40;4.53;;;;;;;;;;5027322;28;20547;-56
2024/02/12 00:17:29;;;;;;;5.73;4.87;;;;;;;;;;5026054;28;20166;-57
2024/02/12 00:19:55;;;;;;;6.80;4.93;;;;;;;;;;5025333;28;20226;-56
2024/02/12 00:22:23;;;;;;;6.77;5.83;;;;;;;;;;5025022;28;20213;-56
2024/02/12 00:24:50;;;;;;;7.67;5.80;;;;;;;;;;5021046;28;20265;-56
2024/02/12 00:27:16;;;;;;;10.43;6.40;;;;;;;;;;5027244;28;20532;-53
2024/02/12 00:29:43;;;;;;;7.03;6.17;;;;;;;;;;5026763;28;20548;-53
2024/02/12 00:32:10;;;;;;;8.30;6.40;;;;;;;;;;5027026;28;20174;-52
2024/02/12 00:34:37;;;;;;;6.63;6.03;;;;;;;;;;5026201;28;20542;-52
2024/02/12 00:37:03;;;;;;;7.50;6.10;;;;;;;;;;5027002;28;20527;-51
2024/02/12 00:39:30;;;;;;;7.70;5.90;;;;;;;;;;5025865;28;20548;-52
2024/02/12 00:41:57;;;;;;;8.77;5.83;;;;;;;;;;5025886;28;20192;-53
2024/02/12 00:44:23;;;;;;;8.37;6.27;;;;;;;;;;5026862;28;20243;-53
2024/02/12 00:46:54;;;;;;;7.47;6.27;;;;;;;;;;5023526;28;20604;-51
2024/02/12 00:49:20;;;;;;;6.60;6.00;;;;;;;;;;5026036;28;20494;-52
2024/02/12 00:51:46;;;;;;;7.10;6.37;;;;;;;;;;5016257;28;20273;-53
2024/02/12 00:54:14;;;;;;;6.30;5.70;;;;;;;;;;5019286;28;20631;-52
2024/02/12 00:56:48;;;;;;;7.50;6.73;;;;;;;;;;5025827;28;20670;-53
2024/02/12 00:59:17;;;;;;;6.20;5.60;;;;;;;;;;5020584;28;20263;-53
2024/02/12 01:01:44;;;;;;;7.90;6.20;;;;;;;;;;5014048;28;20229;-53
2024/02/12 01:04:10;;;;;;;6.47;5.47;;;;;;;;;;5026169;28;20162;-52
2024/02/12 01:06:36;;;;;;;7.10;6.30;;;;;;;;;;5018317;28;20240;-52
2024/02/12 01:09:05;;;;;;;6.70;6.00;;;;;;;;;;5023092;28;20190;-52
2024/02/12 01:11:31;;;;;;;6.80;6.10;;;;;;;;;;5019795;28;20193;-51
2024/02/12 01:13:57;;;;;;;6.87;6.17;;;;;;;;;;5025339;28;20178;-52
2024/02/12 01:16:24;;;;;;;9.10;6.43;;;;;;;;;;5027615;28;20177;-51
2024/02/12 01:18:53;;;;;;;6.20;5.43;;;;;;;;;;5028927;28;20236;-52
2024/02/12 01:21:20;;;;;;;6.83;5.90;;;;;;;;;;5029550;28;20596;-52
2024/02/12 01:23:46;;;;;;;7.00;6.33;;;;;;;;;;5027360;28;20192;-52
2024/02/12 01:26:13;;;;;;;6.43;5.60;;;;;;;;;;5030124;28;20189;-52
2024/02/12 01:28:40;;;;;;;7.00;5.93;;;;;;;;;;5029515;28;20660;-52
2024/02/12 01:31:10;;;;;;;6.73;5.87;;;;;;;;;;5029037;28;20166;-53
2024/02/12 01:33:40;;;;;;;6.90;6.03;;;;;;;;;;5029906;28;20170;-52
2024/02/12 01:36:07;;;;;;;6.47;5.87;;;;;;;;;;5028301;28;20535;-54
2024/02/12 01:38:33;;;;;;;7.73;6.30;;;;;;;;;;5028829;28;20250;-54
2024/02/12 01:40:59;;;;;;;7.07;6.20;;;;;;;;;;5029052;28;20224;-54
2024/02/12 01:43:32;;;;;;;7.07;6.00;;;;;;;;;;5029664;28;20288;-54
2024/02/12 01:46:05;;;;;;;7.67;6.53;;;;;;;;;;5029361;28;20225;-56
2024/02/12 01:48:31;;;;;;;7.77;6.90;;;;;;;;;;5025699;28;20189;-58
2024/02/12 01:50:58;;;;;;;8.77;6.47;;;;;;;;;;5029043;28;20217;-56
2024/02/12 01:53:25;;;;;;;8.27;6.73;;;;;;;;;;5028332;28;20166;-58
2024/02/12 01:55:51;;;;;;;11.10;7.67;;;;;;;;;;5026702;28;20182;-57
2024/02/12 01:58:18;;;;;;;9.00;8.10;;;;;;;;;;5028255;28;20209;-56
2024/02/12 02:00:51;;;;;;;8.03;7.23;;;;;;;;;;5029236;28;20642;-58
2024/02/12 02:03:21;;;;;;;13.40;8.93;;;;;;;;;;5028421;28;20202;-57
2024/02/12 02:05:48;;;;;;;10.73;8.17;;;;;;;;;;5021547;28;20780;-57
2024/02/12 02:08:14;;;;;;;10.37;8.20;;;;;;;;;;5024980;28;20309;-57
2024/02/12 02:10:40;;;;;;;12.43;9.53;;;;;;;;;;5029062;28;20205;-58
2024/02/12 02:13:06;;;;;;;9.60;8.57;;;;;;;;;;5021302;28;20263;-57
2024/02/12 02:15:33;;;;;;;12.63;8.60;;;;;;;;;;5024465;28;20293;-58
2024/02/12 02:18:03;;;;;;;13.27;9.93;;;;;;;;;;5017650;28;20293;-58
2024/02/12 02:20:30;;;;;;;10.17;8.83;;;;;;;;;;5018532;28;20197;-58
2024/02/12 02:22:56;;;;;;;10.93;9.43;;;;;;;;;;5023962;28;20212;-55
2024/02/12 02:25:23;;;;;;;15.33;10.77;;;;;;;;;;5026499;28;20177;-58
2024/02/12 02:27:50;;;;;;;17.20;11.33;;;;;;;;;;5026696;28;20245;-58
2024/02/12 02:30:16;;;;;;;13.70;11.17;;;;;;;;;;5026831;28;20297;-58
2024/02/12 02:32:42;;;;;;;12.97;10.70;;;;;;;;;;5016197;28;20188;-57
2024/02/12 02:35:08;;;;;;;13.93;11.27;;;;;;;;;;5028675;28;20584;-57
2024/02/12 02:37:35;;;;;;;17.30;12.40;;;;;;;;;;5029305;28;20180;-58
2024/02/12 02:40:06;;;;;;;15.67;11.57;;;;;;;;;;5023167;28;20198;-57
2024/02/12 02:42:33;;;;;;;20.27;12.80;;;;;;;;;;5026238;28;20685;-58
2024/02/12 02:44:59;;;;;;;16.63;12.00;;;;;;;;;;5028208;28;20178;-57
2024/02/12 02:47:25;;;;;;;16.70;12.90;;;;;;;;;;5028165;28;20276;-58
2024/02/12 02:49:51;;;;;;;19.80;13.13;;;;;;;;;;5026330;28;20652;-58
2024/02/12 02:52:17;;;;;;;15.70;12.93;;;;;;;;;;5028548;28;20663;-57
2024/02/12 02:54:44;;;;;;;21.70;14.60;;;;;;;;;;5026353;28;20264;-56
2024/02/12 02:57:11;;;;;;;23.80;14.03;;;;;;;;;;5027963;28;20327;-53
2024/02/12 02:59:38;;;;;;;19.63;14.17;;;;;;;;;;5027518;28;20217;-54
2024/02/12 03:02:08;;;;;;;20.30;14.20;;;;;;;;;;5028278;28;20178;-54
2024/02/12 03:04:35;;;;;;;21.67;14.67;;;;;;;;;;5027415;28;20182;-54
2024/02/12 03:07:02;;;;;;;21.90;14.90;;;;;;;;;;5028132;28;20248;-54
2024/02/12 03:09:28;;;;;;;19.73;14.17;;;;;;;;;;5026153;28;20217;-53
2024/02/12 03:11:54;;;;;;;21.67;15.23;;;;;;;;;;5025840;28;20193;-54
2024/02/12 03:14:21;;;;;;;22.13;15.10;;;;;;;;;;5027722;28;20405;-53
2024/02/12 03:16:51;;;;;;;24.20;16.23;;;;;;;;;;5027635;28;20273;-53
2024/02/12 03:19:17;;;;;;;23.90;16.17;;;;;;;;;;5026741;28;20751;-53
2024/02/12 03:21:44;;;;;;;20.07;14.90;;;;;;;;;;5026554;28;20252;-54
2024/02/12 03:24:10;;;;;;;21.00;16.03;;;;;;;;;;5026433;28;20174;-53
2024/02/12 03:26:36;;;;;;;24.10;15.13;;;;;;;;;;5027664;28;20177;-53
2024/02/12 03:29:02;;;;;;;20.53;16.17;;;;;;;;;;5018797;28;20204;-54
2024/02/12 03:31:29;;;;;;;25.80;16.80;;;;;;;;;;5019042;28;20181;-54
2024/02/12 03:33:55;;;;;;;25.17;17.40;;;;;;;;;;5025756;28;20189;-54
2024/02/12 03:36:22;;;;;;;20.53;15.87;;;;;;;;;;5025053;28;20208;-53
2024/02/12 03:38:48;;;;;;;20.60;16.30;;;;;;;;;;5025391;28;20303;-53
2024/02/12 03:41:18;;;;;;;22.50;18.40;;;;;;;;;;5026157;28;20587;-54
2024/02/12 03:43:44;;;;;;;18.23;14.57;;;;;;;;;;5018785;28;20301;-54
2024/02/12 03:46:20;;;;;;;21.87;16.43;;;;;;;;;;5017714;28;20197;-53
2024/02/12 03:59:52;;;;;;;23.17;16.90;;;;;;;;;;5022721;28;20239;-53
2024/02/12 04:02:18;;;;;;;25.47;18.13;;;;;;;;;;5019888;28;20186;-53
2024/02/12 04:04:44;;;;;;;20.73;16.77;;;;;;;;;;5022384;28;20202;-53
2024/02/12 04:07:10;;;;;;;23.13;16.67;;;;;;;;;;5022271;28;20654;-57
2024/02/12 04:09:38;;;;;;;25.53;17.90;;;;;;;;;;5021075;28;20398;-57
2024/02/12 04:12:11;;;;;;;24.70;16.90;;;;;;;;;;5023939;28;20181;-57
2024/02/12 04:14:38;;;;;;;22.63;16.87;;;;;;;;;;5021329;28;20258;-57
2024/02/12 04:17:05;;;;;;;23.20;17.33;;;;;;;;;;5016574;28;20175;-57
2024/02/12 04:19:32;;;;;;;22.87;16.73;;;;;;;;;;5023607;28;20616;-56
2024/02/12 04:21:58;;;;;;;27.43;17.33;;;;;;;;;;5026418;28;20177;-57
2024/02/12 04:24:29;;;;;;;20.13;15.30;;;;;;;;;;5025655;28;20281;-58
2024/02/12 04:26:55;;;;;;;22.57;17.90;;;;;;;;;;5019079;28;20178;-57
2024/02/12 04:29:22;;;;;;;20.70;16.30;;;;;;;;;;5025685;28;20209;-58
2024/02/12 04:31:48;;;;;;;22.00;16.33;;;;;;;;;;5025837;28;20170;-57
2024/02/12 04:34:14;;;;;;;22.53;16.83;;;;;;;;;;5026267;28;20794;-58
2024/02/12 04:36:43;;;;;;;20.73;15.80;;;;;;;;;;5020699;28;20178;-57
2024/02/12 04:39:10;;;;;;;22.33;16.43;;;;;;;;;;5025403;28;20166;-57
2024/02/12 04:41:44;;;;;;;26.30;16.57;;;;;;;;;;5026469;28;20212;-57
2024/02/12 04:44:10;;;;;;;26.90;17.73;;;;;;;;;;5027002;28;20181;-57
2024/02/12 04:46:36;;;;;;;23.03;16.60;;;;;;;;;;5026327;28;20200;-57
2024/02/12 04:49:03;;;;;;;22.63;16.93;;;;;;;;;;5019018;28;20217;-57
2024/02/12 04:51:31;;;;;;;23.13;18.00;;;;;;;;;;5029213;28;20507;-57
2024/02/12 04:53:57;;;;;;;24.93;19.03;;;;;;;;;;5026489;28;20229;-57
2024/02/12 04:56:23;;;;;;;27.00;17.57;;;;;;;;;;5027582;28;20220;-57
2024/02/12 04:58:49;;;;;;;29.03;19.97;;;;;;;;;;5029195;28;20194;-57
2024/02/12 05:01:15;;;;;;;25.00;19.00;;;;;;;;;;5028554;28;20252;-57
2024/02/12 05:03:41;;;;;;;26.03;19.70;;;;;;;;;;5029579;28;20670;-56
2024/02/12 05:06:08;;;;;;;27.47;20.67;;;;;;;;;;5028933;28;20264;-57
2024/02/12 05:08:34;;;;;;;30.40;19.93;;;;;;;;;;5029245;28;20174;-57
2024/02/12 05:11:00;;;;;;;30.33;21.73;;;;;;;;;;5029614;28;20653;-57
2024/02/12 05:13:27;;;;;;;26.97;20.10;;;;;;;;;;5029401;28;20178;-57
2024/02/12 05:15:54;;;;;;;30.27;21.03;;;;;;;;;;5029621;28;20256;-53
2024/02/12 05:23:52;;;;;;;28.83;21.50;;;;;;;;;;5026107;28;20220;-54
2024/02/12 05:26:18;;;;;;;31.70;21.40;;;;;;;;;;5027523;28;20208;-53
2024/02/12 05:28:45;;;;;;;28.30;22.07;;;;;;;;;;5023096;28;20617;-54
2024/02/12 05:31:11;;;;;;;33.53;23.13;;;;;;;;;;5028141;28;20197;-53
2024/02/12 05:33:37;;;;;;;31.87;23.30;;;;;;;;;;5022598;28;20166;-54
2024/02/12 05:36:05;;;;;;;33.77;22.80;;;;;;;;;;5030217;28;20174;-53
2024/02/12 05:38:31;;;;;;;28.17;20.93;;;;;;;;;;5028410;28;20606;-54
2024/02/12 05:40:57;;;;;;;28.80;19.93;;;;;;;;;;5026890;28;20658;-53
2024/02/12 05:43:23;;;;;;;29.87;23.03;;;;;;;;;;5023790;28;20516;-54
2024/02/12 05:45:49;;;;;;;32.40;22.87;;;;;;;;;;5028407;28;20273;-53
2024/02/12 05:48:16;;;;;;;33.40;23.97;;;;;;;;;;5027968;28;20190;-53
2024/02/12 05:50:42;;;;;;;29.20;22.27;;;;;;;;;;5027874;28;20648;-53
2024/02/12 05:53:08;;;;;;;29.53;21.67;;;;;;;;;;5027663;28;20253;-53
2024/02/12 05:55:39;;;;;;;33.53;23.53;;;;;;;;;;5027296;28;20170;-53
2024/02/12 05:58:05;;;;;;;33.00;21.80;;;;;;;;;;5022924;28;20170;-53
2024/02/12 06:00:31;;;;;;;29.00;22.53;;;;;;;;;;5029399;28;20614;-53
2024/02/12 06:02:57;;;;;;;28.93;21.83;;;;;;;;;;5028078;28;20239;-53
2024/02/12 06:05:23;;;;;;;30.87;23.23;;;;;;;;;;5028753;28;20231;-54
2024/02/12 06:07:49;;;;;;;33.17;24.33;;;;;;;;;;5028478;28;20668;-54
2024/02/12 06:10:18;;;;;;;33.07;24.07;;;;;;;;;;5024179;28;20197;-54
2024/02/12 06:12:44;;;;;;;29.50;23.07;;;;;;;;;;5020482;28;20178;-53
2024/02/12 06:15:10;;;;;;;32.40;23.33;;;;;;;;;;5027419;28;20256;-53
2024/02/12 06:17:37;;;;;;;35.13;25.13;;;;;;;;;;5028093;28;20793;-54
2024/02/12 06:20:05;;;;;;;36.87;24.43;;;;;;;;;;5027242;28;20256;-54
2024/02/12 06:22:32;;;;;;;34.77;24.00;;;;;;;;;;5028506;28;20174;-54
2024/02/12 06:24:58;;;;;;;27.57;23.63;;;;;;;;;;5026072;28;20285;-52
2024/02/12 06:27:24;;;;;;;31.13;22.33;;;;;;;;;;5028495;28;20171;-52
2024/02/12 06:29:50;;;;;;;25.90;19.90;;;;;;;;;;5028413;28;20201;-53
2024/02/12 06:32:16;;;;;;;28.27;21.67;;;;;;;;;;5027932;28;20618;-53
2024/02/12 06:34:43;;;;;;;30.20;21.37;;;;;;;;;;5027585;28;20879;-52
2024/02/12 06:37:09;;;;;;;25.30;19.13;;;;;;;;;;5025227;28;20179;-54
2024/02/12 06:39:35;;;;;;;28.17;21.43;;;;;;;;;;5024185;28;20181;-53
2024/02/12 06:42:01;;;;;;;26.27;19.10;;;;;;;;;;5029334;28;20202;-53
2024/02/12 06:44:29;;;;;;;29.20;22.03;;;;;;;;;;5019452;28;20178;-54
2024/02/12 06:46:55;;;;;;;30.33;20.87;;;;;;;;;;5021144;28;20187;-53
2024/02/12 06:49:21;;;;;;;29.17;20.87;;;;;;;;;;5024739;28;20213;-53
2024/02/12 06:51:47;;;;;;;31.17;21.50;;;;;;;;;;5015133;28;20301;-53
2024/02/12 06:54:13;;;;;;;28.20;21.47;;;;;;;;;;5023962;28;20362;-53
2024/02/12 06:56:43;;;;;;;33.20;21.97;;;;;;;;;;5026971;28;20215;-54
2024/02/12 06:59:09;;;;;;;29.23;21.80;;;;;;;;;;5028034;28;20170;-53
2024/02/12 07:01:36;;;;;;;28.77;21.77;;;;;;;;;;5027365;28;20173;-53
2024/02/12 07:04:03;;;;;;;31.70;22.07;;;;;;;;;;5028566;28;20652;-53
2024/02/12 07:06:29;;;;;;;28.50;20.67;;;;;;;;;;5026749;28;20670;-53
2024/02/12 07:08:56;;;;;;;31.70;21.67;;;;;;;;;;5023393;28;20196;-54
2024/02/12 07:11:22;;;;;;;29.07;21.10;;;;;;;;;;5029974;28;20178;-53
2024/02/12 07:13:49;;;;;;;30.97;22.17;;;;;;;;;;5020993;28;20689;-54
2024/02/12 07:16:19;;;;;;;28.00;21.93;;;;;;;;;;5028141;28;20185;-54
2024/02/12 07:18:45;;;;;;;28.63;21.50;;;;;;;;;;5026810;28;20614;-54
2024/02/12 07:21:11;;;;;;;29.77;20.60;;;;;;;;;;5028267;28;20209;-53
2024/02/12 07:23:38;;;;;;;31.83;22.67;;;;;;;;;;5025766;28;20186;-54
2024/02/12 07:26:04;;;;;;;30.90;21.07;;;;;;;;;;5027285;28;20178;-53
2024/02/12 07:28:30;;;;;;;27.00;20.97;;;;;;;;;;5026739;28;20383;-54
2024/02/12 07:30:57;;;;;;;29.80;21.90;;;;;;;;;;5026523;28;20202;-53
2024/02/12 07:33:23;;;;;;;31.10;20.33;;;;;;;;;;5027447;28;20174;-54
2024/02/12 07:35:49;;;;;;;30.40;21.97;;;;;;;;;;5027812;28;20272;-54
2024/02/12 07:38:15;;;;;;;27.20;20.50;;;;;;;;;;5026372;28;20667;-53
2024/02/12 07:40:41;;;;;;;28.73;22.50;;;;;;;;;;5027674;28;20201;-53
2024/02/12 07:43:07;;;;;;;31.53;22.83;;;;;;;;;;5025591;28;20197;-54
2024/02/12 07:45:34;;;;;;;36.40;23.70;;;;;;;;;;5024906;28;20190;-53
2024/02/12 07:48:00;;;;;;;30.97;21.63;;;;;;;;;;5026339;28;20274;-52
2024/02/12 07:50:26;;;;;;;32.57;22.20;;;;;;;;;;5027338;28;20237;-52
2024/02/12 07:52:52;;;;;;;31.97;21.50;;;;;;;;;;5026446;28;20329;-53
2024/02/12 07:55:20;;;;;;;27.93;21.13;;;;;;;;;;5026146;28;20173;-53
2024/02/12 07:57:48;;;;;;;27.77;21.40;;;;;;;;;;5027178;28;20579;-52
2024/02/12 08:00:14;;;;;;;;;;;;;;;;;;5024429;28;21027;-53
2024/02/12 08:02:43;;;;;;;;;;;;;;;;;;5026564;28;20017;-53
2024/02/12 08:05:09;;;;;;;;;;;;;;;;;;5024963;28;20016;-52
2024/02/12 08:07:35;;;;;;;35.20;22.30;;;;;;;;;;5026272;28;19913;-52
2024/02/12 08:10:03;;;;;;;31.40;22.07;;;;;;;;;;5022399;28;20232;-52
2024/02/12 08:12:30;;;;;;;31.00;22.40;;;;;;;;;;5026601;28;20637;-53
2024/02/12 08:14:56;;;;;;;;;;;;;;;;;;5026805;28;19970;-52
2024/02/12 08:17:24;;;;;;;;;;;;;;;;;;5026591;28;19913;-53
2024/02/12 08:19:50;;;;;;;;;;;;;;;;;;5026859;28;20313;-53
2024/02/12 08:22:16;;;;;;;;;;;;;;;;;;5026188;28;19959;-54
2024/02/12 08:24:42;;;;;;;;;;;;;;;;;;5025019;28;20063;-53
2024/02/12 08:27:08;;;;;;;;;;;;;;;;;;5031529;28;19909;-53
2024/02/12 08:29:35;;;;;;;;;;;;;;;;;;5031246;28;20363;-53
2024/02/12 08:32:01;;;;;;;;;;;;;;;;;;5031549;28;19921;-52
2024/02/12 08:34:28;;;;;;;;;;;;;;;;;;5030011;28;20411;-53
2024/02/12 08:36:54;;;;;;;;;;;;;;;;;;5031682;28;19920;-53
2024/02/12 08:39:21;;;;;;;;;;;;;;;;;;5030119;28;19913;-53
2024/02/12 08:41:47;;;;;;;;;;;;;;;;;;5030789;28;19912;-53
2024/02/12 08:44:13;;;;;;;;;;;;;;;;;;5030795;28;19963;-53
2024/02/12 08:46:39;;;;;;;;;;;;;;;;;;5031257;28;20590;-52
2024/02/12 08:49:05;;;;;;;;;;;;;;;;;;5024495;28;19956;-53
2024/02/12 08:51:31;;;;;;;;;;;;;;;;;;5031235;28;20357;-52
2024/02/12 08:53:57;;;;;;;;;;;;;;;;;;5029397;28;19964;-54
2024/02/12 08:56:23;;;;;;;;;;;;;;;;;;5029707;28;19951;-53
2024/02/12 08:58:49;;;;;;;;;;;;;;;;;;5028374;28;19955;-53
2024/02/12 09:01:17;;;;;;;;;;;;;;;;;;5024049;28;19952;-54
2024/02/12 09:03:43;;;;;;;;;;;;;;;;;;5030066;28;20100;-53
2024/02/12 09:06:11;;;;;;;;;;;;;;;;;;5027952;28;19997;-53
2024/02/12 09:08:37;;;;;;;;;;;;;;;;;;5028912;28;20012;-53
2024/02/12 09:11:03;;;;;;;;;;;;;;;;;;5028690;28;19956;-53
2024/02/12 09:13:31;;;;;;;;;;;;;;;;;;5030022;28;19969;-53
2024/02/12 09:15:57;;;;;;;;;;;;;;;;;;5029626;28;20042;-53
2024/02/12 09:18:26;;;;;;;;;;;;;;;;;;5029007;28;19916;-53
2024/02/12 09:20:52;;;;;;;;;;;;;;;;;;5029142;28;20312;-53
2024/02/12 09:23:21;;;;;;;;;;;;;;;;;;5027163;28;19917;-53
2024/02/12 09:25:47;;;;;;;;;;;;;;;;;;5026573;28;19935;-54
2024/02/12 09:28:13;;;;;;;;;;;;;;;;;;5024983;28;20118;-53
2024/02/12 09:30:39;;;;;;;;;;;;;;;;;;5028146;28;20071;-53
2024/02/12 09:33:06;;;;;;;;;;;;;;;;;;5023325;28;20357;-54
2024/02/12 09:35:35;;;;;;;;;;;;;;;;;;5025362;28;20341;-53
2024/02/12 09:38:03;;;;;;;;;;;;;;;;;;5025810;28;19913;-54
2024/02/12 09:40:33;;;;;;;;;;;;;;;;;;5029027;28;19945;-53
2024/02/12 09:42:59;;;;;;;;;;;;;;;;;;5028876;28;19909;-54
2024/02/12 09:45:25;;;;;;;;;;;;;;;;;;5030710;28;20281;-53
2024/02/12 09:47:51;;;;;;;;;;;;;;;;;;5028625;28;20367;-53
2024/02/12 09:50:17;;;;;;;18.63;14.50;;;;;;;;;;5027717;28;20218;-53
2024/02/12 09:52:46;;;;;;;20.23;16.10;;;;;;;;;;5027733;28;20234;-53
2024/02/12 09:55:12;;;;;;;22.50;15.87;;;;;;;;;;5026041;28;20223;-53
2024/02/12 09:57:39;;;;;;;21.03;15.87;;;;;;;;;;5027410;28;20177;-53
2024/02/12 10:00:07;;;;;;;20.60;15.13;;;;;;;;;;5026156;28;20685;-53
2024/02/12 10:02:36;;;;;;;21.90;15.03;;;;;;;;;;5027391;28;20186;-54
2024/02/12 10:05:06;;;;;;;22.53;14.07;;;;;;;;;;5023754;28;20265;-54
2024/02/12 10:07:39;;;;;;;19.40;15.00;;;;;;;;;;5021956;28;20190;-54
2024/02/12 10:10:06;;;;;;;21.23;15.70;;;;;;;;;;5019250;28;20201;-54
2024/02/12 10:12:32;;;;;;;20.90;15.13;;;;;;;;;;5030812;28;20185;-54
2024/02/12 10:14:58;;;;;;;18.63;14.83;;;;;;;;;;5030562;28;20235;-54
2024/02/12 10:17:24;;;;;;;17.73;14.10;;;;;;;;;;5027666;28;20599;-54
2024/02/12 10:19:50;;;;;;;17.23;13.47;;;;;;;;;;4990350;28;1065435;-54
2024/02/12 10:22:18;;;;;;;15.60;13.30;;;;;;;;;;5028544;28;20224;-55
2024/02/12 10:24:47;;;;;;;15.50;13.20;;;;;;;;;;5026599;28;20261;-54
2024/02/12 10:27:14;;;;;;;16.07;12.27;;;;;;;;;;5023840;28;20176;-54
2024/02/12 10:29:40;;;;;;;17.60;13.93;;;;;;;;;;5027021;28;20205;-54
2024/02/12 10:32:07;;;;;;;18.47;13.07;;;;;;;;;;5026039;28;20739;-54
2024/02/12 10:34:37;;;;;;;14.90;11.70;;;;;;;;;;5028049;28;20182;-54
2024/02/12 10:37:05;;;;;;;18.63;12.37;;;;;;;;;;5025704;28;20723;-54
2024/02/12 10:39:32;;;;;;;16.77;11.10;;;;;;;;;;5025266;28;20281;-54
2024/02/12 10:42:03;;;;;;;14.93;12.33;;;;;;;;;;5027087;28;20182;-54
2024/02/12 10:44:30;;;;;;;15.20;11.47;;;;;;;;;;5023035;28;20173;-54
2024/02/12 10:46:57;;;;;;;17.53;10.77;;;;;;;;;;5024310;28;20198;-55
2024/02/12 10:49:23;;;;;;;11.27;10.00;;;;;;;;;;5023408;28;20641;-55
2024/02/12 10:51:54;;;;;;;12.33;10.00;;;;;;;;;;5025020;28;20166;-54
2024/02/12 10:54:22;;;;;;;14.93;10.23;;;;;;;;;;5022234;28;20170;-54
2024/02/12 10:56:48;;;;;;;12.00;9.37;;;;;;;;;;5021141;28;20189;-54
2024/02/12 10:59:16;;;;;;;13.13;9.57;;;;;;;;;;5025121;28;20200;-54
2024/02/12 11:01:43;;;;;;;10.33;9.27;;;;;;;;;;5022068;28;20686;-54
2024/02/12 11:04:14;;;;;;;11.50;8.97;;;;;;;;;;5023039;28;20178;-54
2024/02/12 11:06:43;;;;;;;10.83;8.87;;;;;;;;;;5026574;28;20266;-54
2024/02/12 11:09:10;;;;;;;11.37;8.30;;;;;;;;;;5025076;28;20653;-57
2024/02/12 11:11:45;;;;;;;10.20;8.00;;;;;;;;;;5026105;28;20185;-57
2024/02/12 11:14:13;;;;;;;8.23;7.33;;;;;;;;;;5024652;28;20626;-56
2024/02/12 11:16:39;;;;;;;9.57;7.40;;;;;;;;;;5026056;28;20174;-56
2024/02/12 11:19:07;;;;;;;10.20;8.20;;;;;;;;;;5025457;28;20312;-55
2024/02/12 11:21:38;;;;;;;8.03;7.20;;;;;;;;;;5025507;28;20181;-56
2024/02/12 11:24:04;;;;;;;10.02;8.85;;;;;;;;;;5021083;28;20514;-53
2024/02/12 11:26:44;;;;;;;9.23;6.83;;;;;;;;;;5025091;28;20186;-54
2024/02/12 11:29:11;;;;;;;10.27;7.73;;;;;;;;;;5024698;28;20545;-56
2024/02/12 11:31:40;;;;;;;7.80;7.00;;;;;;;;;;5019734;28;20628;-55
2024/02/12 11:34:20;;;;;;;10.30;7.63;;;;;;;;;;5021122;28;20197;-54
2024/02/12 11:37:07;;;;;;;8.43;7.43;;;;;;;;;;5019114;28;20591;-57
2024/02/12 11:39:34;;;;;;;7.90;7.10;;;;;;;;;;5020866;28;20190;-54
2024/02/12 11:42:00;;;;;;;9.63;6.33;;;;;;;;;;5021454;28;20217;-54
2024/02/12 11:44:26;;;;;;;9.53;7.47;;;;;;;;;;5022400;28;20188;-54
2024/02/12 11:46:55;;;;;;;8.60;6.50;;;;;;;;;;5026453;28;20228;-53
2024/02/12 11:49:21;;;;;;;9.83;7.00;;;;;;;;;;5025449;28;20260;-54
2024/02/12 11:51:49;;;;;;;12.73;8.07;;;;;;;;;;5026845;28;20575;-54
2024/02/12 11:54:15;;;;;;;7.67;6.87;;;;;;;;;;5024591;28;20251;-53
2024/02/12 11:56:43;;;;;;;7.90;7.00;;;;;;;;;;5026730;28;20582;-54
2024/02/12 11:59:10;;;;;;;11.30;7.27;;;;;;;;;;5025906;28;20169;-53
2024/02/12 12:01:37;;;;;;;8.77;6.23;;;;;;;;;;5027074;28;20676;-54
2024/02/12 12:04:03;;;;;;;13.27;7.23;;;;;;;;;;5017616;28;20280;-54
2024/02/12 12:06:33;;;;;;;9.33;6.83;;;;;;;;;;5019152;28;20181;-53
2024/02/12 12:08:59;;;;;;;10.13;7.20;;;;;;;;;;5017168;28;20197;-54
2024/02/12 12:11:26;;;;;;;8.77;6.13;;;;;;;;;;5026730;28;20174;-56
2024/02/12 12:14:01;;;;;;;10.07;6.87;;;;;;;;;;5025207;28;20224;-55
2024/02/12 12:16:28;;;;;;;6.97;6.27;;;;;;;;;;5027053;28;20188;-56
2024/02/12 12:18:54;;;;;;;8.27;6.47;;;;;;;;;;5026490;28;20259;-55
2024/02/12 12:21:20;;;;;;;9.37;6.53;;;;;;;;;;5027369;28;20619;-55
2024/02/12 12:23:47;;;;;;;9.00;6.97;;;;;;;;;;5021149;28;20224;-55
2024/02/12 12:26:13;;;;;;;9.77;6.13;;;;;;;;;;5027162;28;20231;-58
2024/02/12 12:28:39;;;;;;;7.47;6.30;;;;;;;;;;5027369;28;20189;-54
2024/02/12 12:31:07;;;;;;;7.47;6.70;;;;;;;;;;5027137;28;20232;-54
2024/02/12 12:33:33;;;;;;;6.80;6.20;;;;;;;;;;5024291;28;20412;-54
2024/02/12 12:35:59;;;;;;;11.60;7.13;;;;;;;;;;5030410;28;20189;-54
2024/02/12 12:38:25;;;;;;;8.07;5.93;;;;;;;;;;5022619;28;20247;-54
2024/02/12 12:40:51;;;;;;;9.13;7.03;;;;;;;;;;5026638;28;20186;-54
2024/02/12 12:43:18;;;;;;;6.50;5.83;;;;;;;;;;5026398;28;20232;-54
2024/02/12 12:45:45;;;;;;;7.37;5.87;;;;;;;;;;5018559;28;20611;-54
2024/02/12 12:48:12;;;;;;;8.77;7.50;;;;;;;;;;5025453;28;20181;-54
2024/02/12 12:50:38;;;;;;;12.23;7.20;;;;;;;;;;5026691;28;20189;-54
2024/02/12 12:53:04;;;;;;;10.27;7.07;;;;;;;;;;5017834;28;20174;-54
2024/02/12 12:55:31;;;;;;;9.23;5.97;;;;;;;;;;5024974;28;20239;-54
2024/02/12 12:57:57;;;;;;;6.33;5.73;;;;;;;;;;5021772;28;20607;-54
2024/02/12 13:00:28;;;;;;;8.20;5.97;;;;;;;;;;5027128;28;20963;-54
2024/02/12 13:02:55;;;;;;;8.03;6.30;;;;;;;;;;5026020;28;20189;-53
2024/02/12 13:05:22;;;;;;;6.47;5.87;;;;;;;;;;5024762;28;20178;-53
2024/02/12 13:07:48;;;;;;;9.13;6.20;;;;;;;;;;5023296;28;20273;-54
2024/02/12 13:10:15;;;;;;;6.57;5.97;;;;;;;;;;5023606;28;20747;-53
2024/02/12 13:12:43;;;;;;;8.07;5.63;;;;;;;;;;5029563;28;20635;-53
2024/02/12 13:15:09;;;;;;;9.07;5.83;;;;;;;;;;5029051;28;20757;-54
2024/02/12 13:17:41;;;;;;;7.20;5.70;;;;;;;;;;5029958;28;20661;-53
2024/02/12 13:20:10;;;;;;;7.70;6.07;;;;;;;;;;5030136;28;20282;-54
2024/02/12 13:22:39;;;;;;;8.03;5.37;;;;;;;;;;5030430;28;20182;-54
2024/02/12 13:25:05;;;;;;;7.50;6.27;;;;;;;;;;5028741;28;20534;-54
2024/02/12 13:27:32;;;;;;;6.60;6.00;;;;;;;;;;5030638;28;20281;-54
2024/02/12 13:29:58;;;;;;;6.87;6.00;;;;;;;;;;5030220;28;20323;-54
2024/02/12 13:32:24;;;;;;;6.60;4.83;;;;;;;;;;5030135;28;20269;-54
2024/02/12 13:34:50;;;;;;;9.30;6.13;;;;;;;;;;5029024;28;20171;-54
2024/02/12 13:37:16;;;;;;;7.60;6.43;;;;;;;;;;5030443;28;20189;-57
2024/02/12 13:39:42;;;;;;;6.60;5.93;;;;;;;;;;5028889;28;20194;-57
2024/02/12 13:42:11;;;;;;;7.43;6.60;;;;;;;;;;5029872;28;20228;-56
2024/02/12 13:44:37;;;;;;;10.23;6.00;;;;;;;;;;5028274;28;20464;-58
2024/02/12 13:47:03;;;;;;;10.50;6.47;;;;;;;;;;5030039;28;20629;-57
2024/02/12 13:49:29;;;;;;;8.67;7.10;;;;;;;;;;5029167;28;20252;-57
2024/02/12 13:51:56;;;;;;;6.20;5.60;;;;;;;;;;5029109;28;20181;-57
2024/02/12 13:54:22;;;;;;;7.30;6.30;;;;;;;;;;5027273;28;20208;-57
2024/02/12 13:56:48;;;;;;;7.90;6.23;;;;;;;;;;5029875;28;20341;-57
2024/02/12 13:59:16;;;;;;;9.07;6.23;;;;;;;;;;5026451;28;20264;-57
2024/02/12 14:01:45;;;;;;;7.10;5.83;;;;;;;;;;5021833;28;20232;-57
2024/02/12 14:04:12;;;;;;;8.23;7.20;;;;;;;;;;5028131;28;20197;-57
2024/02/12 14:06:38;;;;;;;8.37;6.67;;;;;;;;;;5026717;28;20196;-56
2024/02/12 14:09:07;;;;;;;6.47;5.90;;;;;;;;;;5021042;28;20483;-57
2024/02/12 14:11:33;;;;;;;6.60;5.80;;;;;;;;;;5029539;28;20743;-57
2024/02/12 14:14:00;;;;;;;7.47;5.80;;;;;;;;;;5028861;28;20227;-57
2024/02/12 14:16:26;;;;;;;8.10;5.47;;;;;;;;;;5028985;28;20189;-57
2024/02/12 14:18:53;;;;;;;7.93;5.40;;;;;;;;;;5023347;28;20230;-57
2024/02/12 14:21:21;;;;;;;8.93;5.27;;;;;;;;;;5025911;28;20319;-57
2024/02/12 14:23:47;;;;;;;6.73;5.23;;;;;;;;;;5024953;28;20212;-56
2024/02/12 14:26:15;;;;;;;6.80;4.70;;;;;;;;;;5028675;28;20182;-57
2024/02/12 14:28:41;;;;;;;8.70;5.10;;;;;;;;;;5028645;28;20240;-57
2024/02/12 14:31:08;;;;;;;6.93;4.53;;;;;;;;;;5028295;28;20809;-57
2024/02/12 14:33:34;;;;;;;8.43;4.53;;;;;;;;;;5027860;28;20261;-57
2024/02/12 14:36:00;;;;;;;6.87;4.93;;;;;;;;;;5027681;28;20654;-57
2024/02/12 14:38:26;;;;;;;6.83;4.33;;;;;;;;;;5027202;28;20170;-57
2024/02/12 14:40:56;;;;;;;7.23;5.10;;;;;;;;;;5028862;28;20261;-57
2024/02/12 14:43:22;;;;;;;7.57;5.37;;;;;;;;;;5027830;28;20290;-56
2024/02/12 14:45:49;;;;;;;6.40;4.77;;;;;;;;;;5028240;28;20193;-57
2024/02/12 14:48:16;;;;;;;9.93;5.13;;;;;;;;;;5027572;28;20175;-53
2024/02/12 14:50:42;;;;;;;5.97;4.23;;;;;;;;;;5029339;28;20207;-54
2024/02/12 14:53:08;;;;;;;6.57;4.23;;;;;;;;;;5027245;28;20265;-53
2024/02/12 14:55:35;;;;;;;6.17;4.33;;;;;;;;;;5019997;28;20233;-53
2024/02/12 14:58:01;;;;;;;6.30;4.17;;;;;;;;;;5027071;28;20178;-54